메인 페이지
METAR-TAF:

METAR-TAF

공항 :

Lake Tahoe Airport

South Lake Tahoe, 캘리포니아, 미국

위도: 38-53-38N, 경도: 119-59-43W, 고도: 1909m

현재 날씨관측

예보는 1 시간 24분 전, 13:53시(UTC)에 발표되었습니다.
3kt
온도 3°C
습도 100%
기압 1020 hPa
시정: 16.1km
맑음

METAR: KTVL 241353Z AUTO 19003KT 10SM CLR 03/03 A3013 RMK AO2 SLP173 T00330028

시각: 08:17 (15:17 UTC)

예보

예보는 3 시간 55분 전, 11:22시(UTC)에 발표되었습니다.
예보 대상 시간: 24일 12시부터 25일 12시까지 (UTC)
4kt
시정: 10km
맑음
24일 1700시부터 (UTC)
북동8kt
시정: 10km
고도 5000ft 상공 구름 조금
고도 9000ft 상공 구름 보통
고도 18000ft 상공 구름 보통
24일 2000시부터 (UTC)
동북동7kt
시정: 10km
고도 5000ft 상공 구름 보통, 적란운.
고도 8000ft 상공 구름 많음
고도 18000ft 상공 흐림
시계 내 뇌우
24일 2300시부터 (UTC)
8kt
시정: 9.7km
고도 4000ft 상공 구름 많음, 적란운.
고도 7000ft 상공 흐림
약한소나기, 시계 내 뇌우
25일 0200시부터 (UTC)
8kt
시정: 8.0km
고도 3500ft 상공 구름 많음
고도 6000ft 상공 흐림
약한소나기
25일 0500시부터 (UTC)
여러 방향의 바람 4kt
시정: 10km
고도 3500ft 상공 구름 보통
고도 7000ft 상공 구름 많음
약한소나기
25일 1000시부터 (UTC)
여러 방향의 바람 3kt
시정: 10km
고도 3000ft 상공 구름 보통
고도 6000ft 상공 흐림
시계 내 소나기

TAF: KTVL 241122Z 2412/2512 18004KT P6SM SKC FM241700 04008KT P6SM FEW050 SCT090 SCT180 FM242000 07007KT P6SM VCTS SCT050CB BKN080 OVC180 FM242300 19008KT 6SM -SHRA VCTS BKN040CB OVC070 FM250200 18008KT 5SM -SHRA BKN035 OVC060 FM250500 VRB04KT P6SM -SHRA SCT035 BKN070 FM251000 VRB03KT P6SM VCSH SCT030 OVC060

4,000개 이상의 공항 관측 자료 및 예보 (METAR 및 TAF 보고).

지도상에서 검색 가능한 기상관측소가 노란 점과 빨간 점으로 표시되어 있습니다.

기상관측소 명을 보려면 표시 위로 마우스를 이동하세요.

날씨 관측과 예보를 보려면 클릭하세요.

지도 변경 : 확대하려면 엑스 표시가 있는 녹색 버튼, 축소하려면 빼기 표시가 있는 녹색 버튼, 다음 페이지의 지도를 보려면 녹색 화살표를 클릭하세요.


METAR-TAF: